createdAt,value
2019-05-19T00:00:06.385Z,46.60
2019-05-19T00:02:35.768Z,46.80
2019-05-19T00:05:05.409Z,44.47
2019-05-19T00:07:34.457Z,46.40
2019-05-19T00:10:03.908Z,48.43
2019-05-19T00:12:32.976Z,47.00
2019-05-19T00:15:02.393Z,46.37
2019-05-19T00:17:31.454Z,49.40
2019-05-19T00:20:00.904Z,48.77
2019-05-19T00:22:29.955Z,48.03
2019-05-19T00:25:02.491Z,48.03
2019-05-19T00:27:31.538Z,48.70
2019-05-19T00:30:00.553Z,49.87
2019-05-19T00:32:29.630Z,49.20
2019-05-19T00:34:58.672Z,49.60
2019-05-19T00:37:27.710Z,49.80
2019-05-19T00:39:56.762Z,50.00
2019-05-19T00:42:26.189Z,48.63
2019-05-19T00:44:55.300Z,51.17
2019-05-19T00:47:24.347Z,51.10
2019-05-19T00:49:53.394Z,49.93
2019-05-19T00:52:22.460Z,51.53
2019-05-19T00:54:51.582Z,51.30
2019-05-19T00:57:20.667Z,52.37
2019-05-19T00:59:50.697Z,51.07
2019-05-19T01:02:19.789Z,48.70
2019-05-19T01:04:49.876Z,52.83
2019-05-19T01:07:18.950Z,51.73
2019-05-19T01:09:48.379Z,52.07
2019-05-19T01:12:17.458Z,53.93
2019-05-19T01:14:46.503Z,53.67
2019-05-19T01:17:15.503Z,54.27
2019-05-19T01:19:55.689Z,52.83
2019-05-19T01:22:15.651Z,51.90
2019-05-19T01:24:44.695Z,53.73
2019-05-19T01:27:13.758Z,52.27
2019-05-19T01:29:42.783Z,55.23
2019-05-19T01:32:12.767Z,51.00
2019-05-19T01:34:41.876Z,51.63
2019-05-19T01:37:11.275Z,53.60
2019-05-19T01:39:40.594Z,52.93
2019-05-19T01:42:09.647Z,53.57
2019-05-19T01:44:38.691Z,53.93
2019-05-19T01:47:08.118Z,54.37
2019-05-19T01:49:37.883Z,53.53
2019-05-19T01:52:06.990Z,54.80
2019-05-19T01:54:36.300Z,53.17
2019-05-19T01:57:05.995Z,55.83
2019-05-19T01:59:35.037Z,54.57
2019-05-19T02:02:04.165Z,56.03
2019-05-19T02:04:33.244Z,55.87
2019-05-19T02:07:02.623Z,54.47
2019-05-19T02:09:32.004Z,55.33
2019-05-19T02:12:01.135Z,54.70
2019-05-19T02:14:30.177Z,52.67
2019-05-19T02:16:59.593Z,54.47
2019-05-19T02:19:28.650Z,53.73
2019-05-19T02:21:57.720Z,52.90
2019-05-19T02:24:27.113Z,54.57
2019-05-19T02:26:56.121Z,52.93
2019-05-19T02:29:25.482Z,52.47
2019-05-19T02:31:55.269Z,52.37
2019-05-19T02:34:24.675Z,52.60
2019-05-19T02:36:54.119Z,51.90
2019-05-19T02:39:23.573Z,52.93
2019-05-19T02:41:54.443Z,53.10
2019-05-19T02:44:23.583Z,53.00
2019-05-19T02:46:52.923Z,53.30
2019-05-19T02:49:22.387Z,55.87
2019-05-19T02:51:52.656Z,56.37
2019-05-19T02:54:21.971Z,54.30
2019-05-19T02:56:52.528Z,55.70
2019-05-19T02:59:23.250Z,57.23
2019-05-19T03:02:03.513Z,58.07
2019-05-19T03:04:33.581Z,57.83
2019-05-19T03:07:02.872Z,56.53
2019-05-19T03:09:32.257Z,56.70
2019-05-19T03:12:01.303Z,57.13
2019-05-19T03:14:30.319Z,56.17
2019-05-19T03:16:59.695Z,57.90
2019-05-19T03:19:28.719Z,55.57
2019-05-19T03:21:57.761Z,58.40
2019-05-19T03:24:26.775Z,57.83
2019-05-19T03:26:56.224Z,55.83
2019-05-19T03:29:30.493Z,58.57
2019-05-19T03:32:15.349Z,58.93
2019-05-19T03:34:44.732Z,55.83
2019-05-19T03:37:13.802Z,60.90
2019-05-19T03:39:42.894Z,58.53
2019-05-19T03:42:12.003Z,57.63
2019-05-19T03:44:41.042Z,57.33
2019-05-19T03:47:10.475Z,57.13
2019-05-19T03:49:40.144Z,59.17
2019-05-19T03:52:09.215Z,59.17
2019-05-19T03:54:38.230Z,59.93
2019-05-19T03:57:08.036Z,58.43
2019-05-19T03:59:37.153Z,60.50
2019-05-19T04:02:06.520Z,60.33
2019-05-19T04:04:35.933Z,57.13
2019-05-19T04:07:05.310Z,59.97
2019-05-19T04:09:34.372Z,62.50
2019-05-19T04:12:03.755Z,62.73
2019-05-19T04:14:32.844Z,66.10
2019-05-19T04:17:02.372Z,65.57
2019-05-19T04:19:32.951Z,66.73
2019-05-19T04:22:02.026Z,64.97
2019-05-19T04:24:31.099Z,64.47
2019-05-19T04:27:00.166Z,66.93
2019-05-19T04:29:29.615Z,63.73
2019-05-19T04:31:59.048Z,60.27
2019-05-19T04:34:28.466Z,66.70
2019-05-19T04:36:57.927Z,63.43
2019-05-19T04:39:27.005Z,64.67
2019-05-19T04:41:56.476Z,66.33
2019-05-19T04:44:26.287Z,65.40
2019-05-19T04:46:55.694Z,68.07
2019-05-19T04:49:25.066Z,62.50
2019-05-19T04:52:05.892Z,64.60
2019-05-19T04:54:25.255Z,66.60
2019-05-19T04:56:54.575Z,63.70
2019-05-19T04:59:23.577Z,64.00
2019-05-19T05:01:52.632Z,68.47
2019-05-19T05:04:21.664Z,65.43
2019-05-19T05:06:50.784Z,64.83
2019-05-19T05:09:19.848Z,64.13
2019-05-19T05:11:48.891Z,67.17
2019-05-19T05:14:17.956Z,63.50
2019-05-19T05:16:46.994Z,67.43
2019-05-19T05:19:16.045Z,68.03
2019-05-19T05:21:45.111Z,63.83
2019-05-19T05:24:14.405Z,66.53
2019-05-19T05:26:43.450Z,59.23
2019-05-19T05:29:12.565Z,62.90
2019-05-19T05:31:41.638Z,62.37
2019-05-19T05:34:10.758Z,63.07
2019-05-19T05:36:39.842Z,63.83
2019-05-19T05:39:10.021Z,61.97
2019-05-19T05:41:39.139Z,65.13
2019-05-19T05:44:08.529Z,60.33
2019-05-19T05:46:37.572Z,63.00
2019-05-19T05:49:06.737Z,64.57
2019-05-19T05:51:35.792Z,56.73
2019-05-19T05:54:05.143Z,58.10
2019-05-19T05:56:34.206Z,63.63
2019-05-19T05:59:03.240Z,58.73
2019-05-19T06:01:32.355Z,59.80
2019-05-19T06:04:01.508Z,61.43
2019-05-19T06:06:30.584Z,59.60
2019-05-19T06:08:59.979Z,58.70
2019-05-19T06:11:29.080Z,59.83
2019-05-19T06:13:58.126Z,60.70
2019-05-19T06:16:27.166Z,59.33
2019-05-19T06:18:56.943Z,57.37
2019-05-19T06:21:26.095Z,60.40
2019-05-19T06:23:55.157Z,57.33
2019-05-19T06:26:24.551Z,50.47
2019-05-19T06:28:53.912Z,46.77
2019-05-19T06:31:22.971Z,54.43
2019-05-19T06:33:52.487Z,49.73
2019-05-19T06:36:21.541Z,55.07
2019-05-19T06:38:50.721Z,56.53
2019-05-19T06:41:21.023Z,54.50
2019-05-19T06:43:50.414Z,53.50
2019-05-19T06:46:19.768Z,46.67
2019-05-19T06:48:48.869Z,55.17
2019-05-19T06:51:17.975Z,51.73
2019-05-19T06:53:47.114Z,52.77
2019-05-19T06:56:16.469Z,50.80
2019-05-19T06:58:45.566Z,56.60
2019-05-19T07:01:14.613Z,52.83
2019-05-19T07:03:44.067Z,53.07
2019-05-19T07:06:13.171Z,56.30
2019-05-19T07:08:42.541Z,56.90
2019-05-19T07:11:11.659Z,54.83
2019-05-19T07:13:40.695Z,54.57
2019-05-19T07:16:09.727Z,39.67
2019-05-19T07:18:38.811Z,54.23
2019-05-19T07:21:09.013Z,53.37
2019-05-19T07:23:38.332Z,55.27
2019-05-19T07:26:07.979Z,55.40
2019-05-19T07:28:37.013Z,48.93
2019-05-19T07:31:06.040Z,54.63
2019-05-19T07:33:35.539Z,54.93
2019-05-19T07:36:05.033Z,54.30
2019-05-19T07:38:34.097Z,56.17
2019-05-19T07:41:03.180Z,54.33
2019-05-19T07:43:32.211Z,58.87
2019-05-19T07:46:01.311Z,54.93
2019-05-19T07:48:30.745Z,55.13
2019-05-19T07:50:59.807Z,53.00
2019-05-19T07:53:42.188Z,55.47
2019-05-19T07:55:59.619Z,57.37
2019-05-19T07:58:29.551Z,52.07
2019-05-19T08:00:58.758Z,55.60
2019-05-19T08:03:27.839Z,55.83
2019-05-19T08:05:57.208Z,61.77
2019-05-19T08:08:26.307Z,59.80
2019-05-19T08:10:55.756Z,57.70
2019-05-19T08:13:24.818Z,58.37
2019-05-19T08:15:53.829Z,55.73
2019-05-19T08:18:22.857Z,56.53
2019-05-19T08:20:52.648Z,57.07
2019-05-19T08:23:22.452Z,54.97
2019-05-19T08:25:51.515Z,53.77
2019-05-19T08:28:20.556Z,55.67
2019-05-19T08:30:49.652Z,53.37
2019-05-19T08:33:19.479Z,54.00
2019-05-19T08:35:48.647Z,56.97
2019-05-19T08:38:17.662Z,55.43
2019-05-19T08:40:47.074Z,54.07
2019-05-19T08:43:16.456Z,53.63
2019-05-19T08:45:45.915Z,54.53
2019-05-19T08:48:14.938Z,52.10
2019-05-19T08:50:43.946Z,50.30
2019-05-19T08:53:13.309Z,51.57
2019-05-19T08:55:42.389Z,51.40
2019-05-19T08:58:11.489Z,48.60
2019-05-19T09:00:40.533Z,46.90
2019-05-19T09:03:09.981Z,43.73
2019-05-19T09:05:39.033Z,49.70
2019-05-19T09:08:08.442Z,46.10
2019-05-19T09:10:37.853Z,44.47
2019-05-19T09:13:07.210Z,45.77
2019-05-19T09:15:36.249Z,43.97
2019-05-19T09:18:05.302Z,45.50
2019-05-19T09:20:34.712Z,41.83
2019-05-19T09:23:04.251Z,41.17
2019-05-19T09:25:33.847Z,42.57
2019-05-19T09:28:03.244Z,41.80
2019-05-19T09:30:32.323Z,43.17
2019-05-19T09:33:01.474Z,44.30
2019-05-19T09:35:30.463Z,42.90
2019-05-19T09:37:59.515Z,40.23
2019-05-19T09:40:28.625Z,42.60
2019-05-19T09:42:58.360Z,41.93
2019-05-19T09:45:28.450Z,42.57
2019-05-19T09:47:57.544Z,42.20
2019-05-19T09:50:27.100Z,44.00
2019-05-19T09:52:56.176Z,41.93
2019-05-19T09:55:25.917Z,40.43
2019-05-19T09:57:55.120Z,43.10
2019-05-19T10:00:24.256Z,40.57
2019-05-19T10:02:53.426Z,41.30
2019-05-19T10:05:22.842Z,42.10
2019-05-19T10:07:51.923Z,41.57
2019-05-19T10:10:47.852Z,42.03
2019-05-19T10:13:16.883Z,41.90
2019-05-19T10:15:46.569Z,41.13
2019-05-19T10:18:15.611Z,41.43
2019-05-19T10:20:44.783Z,40.50
2019-05-19T10:23:13.846Z,40.83
2019-05-19T10:25:43.123Z,36.40
2019-05-19T10:28:12.214Z,36.50
2019-05-19T10:30:41.285Z,35.83
2019-05-19T10:33:10.370Z,34.47
2019-05-19T10:35:43.294Z,34.37
2019-05-19T10:38:12.511Z,32.17
2019-05-19T10:40:41.531Z,33.70
2019-05-19T10:43:11.245Z,34.80
2019-05-19T10:45:40.294Z,34.50
2019-05-19T10:48:09.384Z,31.87
2019-05-19T10:50:38.859Z,30.57
2019-05-19T10:53:07.921Z,30.03
2019-05-19T10:55:37.206Z,27.37
2019-05-19T10:58:06.642Z,26.60
2019-05-19T11:00:35.721Z,24.83
2019-05-19T11:03:05.575Z,24.77
2019-05-19T11:05:34.611Z,24.07
2019-05-19T11:08:03.702Z,24.00
2019-05-19T11:10:32.829Z,22.93
2019-05-19T11:13:02.124Z,21.93
2019-05-19T11:15:31.493Z,23.00
2019-05-19T11:18:00.587Z,22.90
2019-05-19T11:20:30.004Z,22.93
2019-05-19T11:22:59.865Z,21.80
2019-05-19T11:25:34.004Z,24.30
2019-05-19T11:28:00.267Z,21.57
2019-05-19T11:30:30.137Z,22.90
2019-05-19T11:32:59.197Z,22.97
2019-05-19T11:35:28.281Z,22.37
2019-05-19T11:37:57.700Z,18.67
2019-05-19T11:40:26.802Z,19.93
2019-05-19T11:42:56.104Z,23.03
2019-05-19T11:45:25.887Z,23.13
2019-05-19T11:47:55.330Z,23.57
2019-05-19T11:50:24.392Z,23.17
2019-05-19T11:52:53.449Z,23.90
2019-05-19T11:55:22.805Z,22.83
2019-05-19T11:57:51.918Z,24.70
2019-05-19T12:00:21.017Z,25.30
2019-05-19T12:02:50.079Z,24.47
2019-05-19T12:05:19.513Z,24.00
2019-05-19T12:07:48.880Z,24.67
2019-05-19T12:10:18.136Z,25.33
2019-05-19T12:12:47.729Z,24.67
2019-05-19T12:15:16.980Z,24.50
2019-05-19T12:17:46.129Z,24.17
2019-05-19T12:20:15.664Z,24.93
2019-05-19T12:22:44.757Z,24.47
2019-05-19T12:25:14.451Z,27.80
2019-05-19T12:27:46.693Z,25.47
2019-05-19T12:30:20.083Z,25.40
2019-05-19T12:32:49.388Z,26.77
2019-05-19T12:35:18.796Z,27.40
2019-05-19T12:37:48.173Z,25.93
2019-05-19T12:40:17.642Z,25.53
2019-05-19T12:42:46.667Z,24.83
2019-05-19T12:45:15.746Z,24.27
2019-05-19T12:47:44.849Z,25.93
2019-05-19T12:50:14.495Z,26.07
2019-05-19T12:52:43.583Z,22.23
2019-05-19T12:55:12.754Z,23.83
2019-05-19T12:57:41.867Z,23.00
2019-05-19T13:00:11.018Z,22.90
2019-05-19T13:02:40.104Z,20.90
2019-05-19T13:05:09.721Z,22.30
2019-05-19T13:07:38.897Z,21.10
2019-05-19T13:10:09.011Z,20.40
2019-05-19T13:12:38.064Z,20.23
2019-05-19T13:15:07.626Z,20.30
2019-05-19T13:17:37.004Z,20.10
2019-05-19T13:20:06.353Z,21.17
2019-05-19T13:22:35.454Z,19.27
2019-05-19T13:25:05.169Z,19.93
2019-05-19T13:27:34.743Z,18.77
2019-05-19T13:30:04.334Z,19.03
2019-05-19T13:32:33.531Z,18.48
2019-05-19T13:35:02.866Z,19.53
2019-05-19T13:37:32.309Z,20.97
2019-05-19T13:40:02.073Z,19.43
2019-05-19T13:42:31.413Z,21.27
2019-05-19T13:45:00.514Z,21.33
2019-05-19T13:47:29.624Z,20.53
2019-05-19T13:49:58.707Z,19.57
2019-05-19T13:52:27.855Z,19.87
2019-05-19T13:54:56.951Z,19.07
2019-05-19T13:57:26.535Z,19.93
2019-05-19T13:59:55.589Z,21.57
2019-05-19T14:02:24.947Z,20.50
2019-05-19T14:04:54.069Z,20.17
2019-05-19T14:07:23.422Z,21.30
2019-05-19T14:09:53.195Z,20.50
2019-05-19T14:12:22.312Z,19.57
2019-05-19T14:14:51.562Z,18.97
2019-05-19T14:17:21.238Z,19.33
2019-05-19T14:19:50.268Z,19.27
2019-05-19T14:22:19.723Z,18.47
2019-05-19T14:24:48.793Z,18.80
2019-05-19T14:27:29.225Z,18.93
2019-05-19T14:29:48.902Z,20.23
2019-05-19T14:32:18.029Z,17.83
2019-05-19T14:34:47.390Z,19.17
2019-05-19T14:37:16.703Z,19.77
2019-05-19T14:39:45.711Z,18.83
2019-05-19T14:42:18.207Z,17.97
2019-05-19T14:44:47.303Z,17.97
2019-05-19T14:47:16.491Z,18.20
2019-05-19T14:49:45.802Z,17.17
2019-05-19T14:52:14.868Z,17.25
2019-05-19T14:54:43.991Z,17.90
2019-05-19T14:57:13.118Z,16.27
2019-05-19T14:59:42.225Z,16.33
2019-05-19T15:02:11.790Z,16.80
2019-05-19T15:04:40.841Z,15.07
2019-05-19T15:07:09.995Z,16.20
2019-05-19T15:09:39.086Z,16.17
2019-05-19T15:12:08.208Z,15.53
2019-05-19T15:14:37.689Z,15.90
2019-05-19T15:17:07.003Z,16.85
2019-05-19T15:19:36.947Z,16.00
2019-05-19T15:22:06.270Z,16.10
2019-05-19T15:24:35.511Z,16.17
2019-05-19T15:27:04.721Z,16.13
2019-05-19T15:29:33.854Z,16.90
2019-05-19T15:32:03.311Z,15.90
2019-05-19T15:34:32.425Z,16.97
2019-05-19T15:37:01.496Z,17.10
2019-05-19T15:39:30.660Z,17.23
2019-05-19T15:41:59.731Z,16.37
2019-05-19T15:44:29.043Z,16.87
2019-05-19T15:46:58.408Z,16.87
2019-05-19T15:49:27.473Z,16.97
2019-05-19T15:52:02.822Z,16.37
2019-05-19T15:54:27.517Z,14.43
2019-05-19T15:56:56.585Z,16.23
2019-05-19T15:59:25.788Z,16.43
2019-05-19T16:01:54.869Z,17.83
2019-05-19T16:04:23.898Z,17.37
2019-05-19T16:06:53.274Z,16.40
2019-05-19T16:09:25.326Z,17.93
2019-05-19T16:11:54.415Z,18.73
2019-05-19T16:14:23.426Z,18.50
2019-05-19T16:16:52.767Z,18.77
2019-05-19T16:19:22.091Z,20.20
2019-05-19T16:21:51.159Z,20.20
2019-05-19T16:24:20.245Z,19.83
2019-05-19T16:26:49.588Z,19.63
2019-05-19T16:29:18.871Z,18.07
2019-05-19T16:31:48.790Z,19.93
2019-05-19T16:34:17.880Z,19.93
2019-05-19T16:36:47.308Z,20.83
2019-05-19T16:39:19.564Z,20.67
2019-05-19T16:41:49.397Z,23.10
2019-05-19T16:44:18.879Z,20.27
2019-05-19T16:46:48.056Z,20.13
2019-05-19T16:49:17.116Z,19.03
2019-05-19T16:51:46.548Z,19.53
2019-05-19T16:54:21.061Z,19.17
2019-05-19T16:56:50.151Z,19.77
2019-05-19T16:59:19.468Z,20.10
2019-05-19T17:01:48.820Z,19.63
2019-05-19T17:04:17.884Z,17.30
2019-05-19T17:06:47.244Z,19.30
2019-05-19T17:09:16.681Z,18.70
2019-05-19T17:11:45.900Z,19.10
2019-05-19T17:14:15.425Z,17.10
2019-05-19T17:16:44.637Z,18.90
2019-05-19T17:19:13.688Z,17.97
2019-05-19T17:21:42.754Z,17.73
2019-05-19T17:24:11.863Z,16.97
2019-05-19T17:26:40.906Z,18.30
2019-05-19T17:29:10.222Z,17.50
2019-05-19T17:31:39.588Z,17.50
2019-05-19T17:34:08.730Z,17.60
2019-05-19T17:36:38.067Z,17.10
2019-05-19T17:39:07.721Z,15.00
2019-05-19T17:41:36.841Z,17.17
2019-05-19T17:44:07.638Z,17.47
2019-05-19T17:46:36.756Z,17.83
2019-05-19T17:49:05.826Z,16.47
2019-05-19T17:51:35.097Z,16.10
2019-05-19T17:54:04.216Z,15.53
2019-05-19T17:56:33.257Z,16.43
2019-05-19T17:59:15.801Z,16.00
2019-05-19T18:01:33.687Z,13.33
2019-05-19T18:04:02.790Z,14.23
2019-05-19T18:06:32.220Z,11.27
2019-05-19T18:09:01.282Z,12.03
2019-05-19T18:11:30.733Z,11.73
2019-05-19T18:14:00.595Z,10.33
2019-05-19T18:16:29.684Z,11.30
2019-05-19T18:19:00.305Z,11.73
2019-05-19T18:21:29.747Z,11.33
2019-05-19T18:23:59.107Z,12.63
2019-05-19T18:26:28.132Z,11.50
2019-05-19T18:28:57.436Z,11.67
2019-05-19T18:31:26.489Z,11.93
2019-05-19T18:33:55.614Z,12.30
2019-05-19T18:36:24.867Z,10.07
2019-05-19T18:38:53.967Z,10.90
2019-05-19T18:41:23.033Z,10.80
2019-05-19T18:43:52.120Z,11.33
2019-05-19T18:46:22.815Z,11.10
2019-05-19T18:48:52.211Z,11.50
2019-05-19T18:51:21.589Z,12.33
2019-05-19T18:53:50.642Z,12.37
2019-05-19T18:56:19.812Z,12.23
2019-05-19T18:58:49.280Z,12.40
2019-05-19T19:01:18.694Z,12.73
2019-05-19T19:03:47.894Z,10.63
2019-05-19T19:06:16.912Z,12.27
2019-05-19T19:08:46.040Z,12.50
2019-05-19T19:11:15.523Z,11.73
2019-05-19T19:13:44.640Z,12.90
2019-05-19T19:16:13.726Z,12.83
2019-05-19T19:18:43.118Z,13.33
2019-05-19T19:21:12.205Z,13.37
2019-05-19T19:23:41.261Z,14.00
2019-05-19T19:26:10.377Z,13.13
2019-05-19T19:28:42.923Z,12.47
2019-05-19T19:31:12.817Z,15.10
2019-05-19T19:33:42.178Z,14.57
2019-05-19T19:36:14.734Z,13.87
2019-05-19T19:38:44.417Z,11.80
2019-05-19T19:41:13.842Z,13.10
2019-05-19T19:43:42.938Z,12.60
2019-05-19T19:46:12.061Z,11.57
2019-05-19T19:48:41.567Z,14.67
2019-05-19T19:51:10.605Z,12.87
2019-05-19T19:53:39.649Z,12.33
2019-05-19T19:56:08.893Z,13.57
2019-05-19T19:58:37.979Z,11.40
2019-05-19T20:01:07.110Z,12.13
2019-05-19T20:03:39.746Z,11.57
2019-05-19T20:06:07.145Z,12.90
2019-05-19T20:08:36.528Z,12.70
2019-05-19T20:11:05.577Z,11.63
2019-05-19T20:13:34.742Z,12.33
2019-05-19T20:16:03.786Z,13.13
2019-05-19T20:18:33.584Z,13.60
2019-05-19T20:21:03.441Z,13.37
2019-05-19T20:23:32.596Z,13.03
2019-05-19T20:26:05.898Z,13.87
2019-05-19T20:28:35.043Z,15.03
2019-05-19T20:31:04.575Z,14.07
2019-05-19T20:33:33.817Z,14.03
2019-05-19T20:36:03.266Z,14.13
2019-05-19T20:38:32.357Z,12.63
2019-05-19T20:41:01.438Z,16.47
2019-05-19T20:43:30.485Z,15.03
2019-05-19T20:46:00.500Z,14.97
2019-05-19T20:48:32.619Z,13.73
2019-05-19T20:51:00.566Z,14.47
2019-05-19T20:53:29.621Z,15.77
2019-05-19T20:55:58.759Z,17.23
2019-05-19T20:58:28.210Z,17.10
2019-05-19T21:00:57.302Z,16.10
2019-05-19T21:03:26.701Z,17.70
2019-05-19T21:05:56.129Z,22.13
2019-05-19T21:08:25.239Z,20.27
2019-05-19T21:10:54.261Z,20.67
2019-05-19T21:13:23.304Z,20.87
2019-05-19T21:15:52.432Z,22.13
2019-05-19T21:18:21.642Z,21.17
2019-05-19T21:20:50.670Z,21.23
2019-05-19T21:23:19.724Z,24.17
2019-05-19T21:25:49.276Z,22.37
2019-05-19T21:28:18.885Z,24.00
2019-05-19T21:30:48.054Z,23.47
2019-05-19T21:33:17.376Z,25.93
2019-05-19T21:35:46.460Z,24.40
2019-05-19T21:38:15.542Z,24.53
2019-05-19T21:40:45.005Z,24.87
2019-05-19T21:43:14.137Z,25.77
2019-05-19T21:45:43.490Z,25.27
2019-05-19T21:48:12.788Z,25.17
2019-05-19T21:50:41.867Z,25.53
2019-05-19T21:53:10.942Z,23.03
2019-05-19T21:55:42.854Z,24.87
2019-05-19T21:58:11.896Z,26.43
2019-05-19T22:00:41.353Z,25.20
2019-05-19T22:03:10.405Z,27.30
2019-05-19T22:05:52.592Z,26.90
2019-05-19T22:08:13.989Z,26.80
2019-05-19T22:10:43.529Z,27.90
2019-05-19T22:13:13.398Z,27.87
2019-05-19T22:15:42.431Z,28.10
2019-05-19T22:18:11.482Z,27.70
2019-05-19T22:20:40.896Z,28.17
2019-05-19T22:23:10.237Z,26.47
2019-05-19T22:25:39.636Z,27.90
2019-05-19T22:28:08.663Z,27.70
2019-05-19T22:30:37.693Z,28.20
2019-05-19T22:33:07.111Z,29.90
2019-05-19T22:35:36.134Z,27.43
2019-05-19T22:38:05.323Z,26.73
2019-05-19T22:40:34.637Z,29.93
2019-05-19T22:43:04.069Z,30.47
2019-05-19T22:45:33.879Z,31.40
2019-05-19T22:48:02.917Z,29.97
2019-05-19T22:50:31.925Z,28.90
2019-05-19T22:53:00.922Z,31.00
2019-05-19T22:55:30.347Z,32.33
2019-05-19T22:57:59.400Z,29.90
2019-05-19T23:00:29.244Z,28.00
2019-05-19T23:02:58.271Z,31.10
2019-05-19T23:05:27.420Z,31.10
2019-05-19T23:07:56.465Z,30.13
2019-05-19T23:10:25.526Z,30.73
2019-05-19T23:12:54.543Z,31.67
2019-05-19T23:15:23.817Z,34.10
2019-05-19T23:17:52.800Z,33.63
2019-05-19T23:20:21.862Z,33.03
2019-05-19T23:22:51.189Z,35.80
2019-05-19T23:25:20.268Z,35.40
2019-05-19T23:27:49.583Z,34.50
2019-05-19T23:30:18.745Z,35.90
2019-05-19T23:32:47.718Z,35.47
2019-05-19T23:35:16.841Z,36.43
2019-05-19T23:37:45.910Z,35.07
2019-05-19T23:40:15.247Z,33.37
2019-05-19T23:42:44.289Z,33.90
2019-05-19T23:45:14.014Z,29.37
2019-05-19T23:47:43.370Z,32.43
2019-05-19T23:50:12.925Z,33.60
2019-05-19T23:52:41.973Z,33.67
2019-05-19T23:55:10.999Z,32.87
2019-05-19T23:57:40.050Z,35.80
